Archival Weather

Chicago O'Hare International

Chicago, Illinois (KORD)

Report from: Thursday, April 13, 2023 9:51 AM CDT
Current time: Sunday, February 25, 2024 4:52 PM CST

Current weather – Weather history – Daily summaries
Weather forecast

Temperature21.1°C (70.0°F)
Dew point5.6°C (42.1°F)
Winds 6 kts (3.1 m/s, 6.9 mph) South-Southwest (200°)
Visibility10 mi. (16.1 km)
Clouds Ceiling: Broken clouds 30,000 ft. (9,144 m)
Altimeter29.92 in.Hg (1013 mB)
Relative humidity36 %
Density altitude865 ft. (264 m)
Sea-level pressure101.3 kPa (1013 mB, 29.91 in.Hg)
Remarks Automated weather observing station with precipitation discriminator
Pressure rising, then falling
Flight conditions Visual Meteorological Conditions
Raw dataKORD 131451Z 20006KT 10SM BKN300 21/06 A2992 RMK AO2 SLP127 T02110056 50004
An error has occurred. This application may no longer respond until reloaded. Reload 🗙